Braunas, Brazil
Current Conditions -  °F | °C
As of 6:00 PM on Friday 19 Dec 2014 (Local Time) from SBIP Reporting Station
Clear Clear  
Wind Chill: 86°   Ceiling: Unl
Heat Index: 87°   Visibility: 6mi
Dew Point: 64°   Wind: 13mph
Humidity: 48%   Direction: 60°ENE
Pressure: 29.77"   Gusts: NA
Location:  19.06°S, 42.72°W
Report Text: SBIP 192000Z 06011KT CAVOK 30/18 Q1008
Loading
Personal Weather Stations






























Interactive Weather Map New forecast layout! Learn more

10-Day Weather Forecast

Advertisements
Track Severe Weather on mobile